createdAt,value
2018-12-20T00:00:05.655Z,99956.21
2018-12-20T00:02:33.835Z,99957.64
2018-12-20T00:05:02.282Z,99954.45
2018-12-20T00:07:30.486Z,99957.52
2018-12-20T00:09:58.790Z,99953.95
2018-12-20T00:12:26.915Z,99961.41
2018-12-20T00:14:55.278Z,99960.03
2018-12-20T00:17:29.067Z,99960.03
2018-12-20T00:19:57.401Z,99960.29
2018-12-20T00:22:26.086Z,99956.02
2018-12-20T00:24:54.520Z,99967.27
2018-12-20T00:27:22.672Z,99962.17
2018-12-20T00:29:51.009Z,99969.63
2018-12-20T00:32:19.428Z,99971.02
2018-12-20T00:34:47.784Z,99976.00
2018-12-20T00:37:16.041Z,99974.69
2018-12-20T00:39:44.313Z,99971.66
2018-12-20T00:42:12.560Z,99980.64
2018-12-20T00:44:40.758Z,99976.60
2018-12-20T00:47:09.003Z,99968.70
2018-12-20T00:49:37.268Z,99977.65
2018-12-20T00:52:05.625Z,99973.70
2018-12-20T00:54:33.914Z,99979.80
2018-12-20T00:57:02.269Z,99980.80
2018-12-20T00:59:30.471Z,99979.84
2018-12-20T01:01:58.627Z,99980.06
2018-12-20T01:04:26.922Z,99981.69
2018-12-20T01:06:55.488Z,99981.59
2018-12-20T01:09:23.804Z,99981.23
2018-12-20T01:11:52.102Z,99974.59
2018-12-20T01:14:20.295Z,99978.63
2018-12-20T01:16:48.465Z,99984.20
2018-12-20T01:19:16.676Z,99991.30
2018-12-20T01:21:45.192Z,99984.23
2018-12-20T01:24:13.433Z,99988.41
2018-12-20T01:26:41.858Z,99991.30
2018-12-20T01:29:10.059Z,99981.84
2018-12-20T01:31:38.487Z,99986.11
2018-12-20T01:34:06.655Z,99990.03
2018-12-20T01:36:34.819Z,99986.84
2018-12-20T01:39:04.835Z,99985.98
2018-12-20T01:41:33.015Z,99983.41
2018-12-20T01:44:01.255Z,99977.67
2018-12-20T01:46:29.455Z,99981.94
2018-12-20T01:48:57.575Z,99977.45
2018-12-20T01:51:26.097Z,99982.10
2018-12-20T01:53:54.302Z,99978.41
2018-12-20T01:56:22.600Z,99976.14
2018-12-20T01:58:50.888Z,99979.45
2018-12-20T02:01:19.237Z,99968.27
2018-12-20T02:03:47.549Z,99976.02
2018-12-20T02:06:16.035Z,99976.42
2018-12-20T02:08:44.236Z,99977.16
2018-12-20T02:11:12.393Z,99973.24
2018-12-20T02:13:40.805Z,99978.33
2018-12-20T02:16:09.036Z,99973.73
2018-12-20T02:18:37.415Z,99978.73
2018-12-20T02:21:05.996Z,99983.39
2018-12-20T02:23:34.114Z,99973.73
2018-12-20T02:26:02.452Z,99971.16
2018-12-20T02:28:30.774Z,99961.80
2018-12-20T02:30:58.916Z,99959.98
2018-12-20T02:33:27.169Z,99948.69
2018-12-20T02:35:55.326Z,99952.87
2018-12-20T02:38:23.606Z,99960.22
2018-12-20T02:40:51.766Z,99956.66
2018-12-20T02:43:20.446Z,99965.95
2018-12-20T02:45:48.591Z,99951.56
2018-12-20T02:48:17.423Z,99950.28
2018-12-20T02:50:45.829Z,99949.59
2018-12-20T02:53:13.966Z,99947.61
2018-12-20T02:55:42.269Z,99945.83
2018-12-20T02:58:10.670Z,99942.30
2018-12-20T03:00:38.735Z,99942.06
2018-12-20T03:03:07.097Z,99945.89
2018-12-20T03:05:35.207Z,99943.59
2018-12-20T03:08:03.385Z,99940.73
2018-12-20T03:10:31.585Z,99941.11
2018-12-20T03:12:59.843Z,99941.81
2018-12-20T03:15:27.995Z,99938.41
2018-12-20T03:17:56.248Z,99934.01
2018-12-20T03:20:24.452Z,99938.33
2018-12-20T03:22:52.844Z,99938.33
2018-12-20T03:25:22.047Z,99940.37
2018-12-20T03:27:50.809Z,99935.97
2018-12-20T03:30:19.247Z,99939.64
2018-12-20T03:32:47.584Z,99934.53
2018-12-20T03:35:15.829Z,99935.04
2018-12-20T03:37:44.050Z,99932.78
2018-12-20T03:40:12.300Z,99929.47
2018-12-20T03:42:40.648Z,99937.17
2018-12-20T03:45:09.005Z,99932.42
2018-12-20T03:47:37.286Z,99935.39
2018-12-20T03:50:05.691Z,99939.51
2018-12-20T03:52:36.352Z,99937.63
2018-12-20T03:55:05.006Z,99944.41
2018-12-20T03:57:33.106Z,99940.02
2018-12-20T04:00:01.490Z,99938.61
2018-12-20T04:02:30.028Z,99938.84
2018-12-20T04:04:58.520Z,99940.23
2018-12-20T04:07:26.735Z,99937.63
2018-12-20T04:09:54.887Z,99933.84
2018-12-20T04:12:23.075Z,99942.02
2018-12-20T04:14:51.378Z,99938.33
2018-12-20T04:17:19.535Z,99943.66
2018-12-20T04:19:48.028Z,99928.59
2018-12-20T04:22:16.208Z,99936.05
2018-12-20T04:24:44.524Z,99945.06
2018-12-20T04:27:12.998Z,99938.75
2018-12-20T04:29:41.258Z,99941.47
2018-12-20T04:32:09.409Z,99934.36
2018-12-20T04:34:37.663Z,99940.31
2018-12-20T04:37:06.008Z,99933.28
2018-12-20T04:39:34.186Z,99931.24
2018-12-20T04:42:02.546Z,99928.82
2018-12-20T04:44:30.694Z,99921.34
2018-12-20T04:46:59.689Z,99936.75
2018-12-20T04:49:28.457Z,99938.34
2018-12-20T04:51:56.648Z,99945.13
2018-12-20T04:54:24.873Z,99937.16
2018-12-20T04:56:53.226Z,99936.94
2018-12-20T04:59:21.659Z,99936.34
2018-12-20T05:01:50.249Z,99935.95
2018-12-20T05:04:19.040Z,99934.88
2018-12-20T05:06:47.147Z,99940.63
2018-12-20T05:09:15.464Z,99935.09
2018-12-20T05:11:43.846Z,99934.22
2018-12-20T05:14:12.101Z,99925.70
2018-12-20T05:16:40.520Z,99929.73
2018-12-20T05:19:08.755Z,99916.56
2018-12-20T05:21:36.966Z,99929.73
2018-12-20T05:24:05.068Z,99919.73
2018-12-20T05:26:33.502Z,99932.19
2018-12-20T05:29:01.736Z,99935.36
2018-12-20T05:31:29.906Z,99930.84
2018-12-20T05:33:58.124Z,99925.87
2018-12-20T05:36:26.435Z,99924.66
2018-12-20T05:38:54.566Z,99925.14
2018-12-20T05:41:22.806Z,99921.52
2018-12-20T05:43:51.697Z,99920.09
2018-12-20T05:46:20.085Z,99919.87
2018-12-20T05:48:48.294Z,99925.27
2018-12-20T05:51:16.613Z,99921.35
2018-12-20T05:53:44.938Z,99930.84
2018-12-20T05:56:13.515Z,99926.86
2018-12-20T05:58:41.667Z,99927.42
2018-12-20T06:01:10.128Z,99928.12
2018-12-20T06:03:38.573Z,99934.64
2018-12-20T06:06:06.828Z,99928.73
2018-12-20T06:08:35.116Z,99925.20
2018-12-20T06:11:03.494Z,99939.73
2018-12-20T06:13:31.959Z,99939.17
2018-12-20T06:16:00.358Z,99946.95
2018-12-20T06:18:29.433Z,99942.34
2018-12-20T06:20:57.738Z,99945.95
2018-12-20T06:23:25.966Z,99940.25
2018-12-20T06:25:54.226Z,99939.23
2018-12-20T06:28:22.470Z,99947.55
2018-12-20T06:30:50.834Z,99943.82
2018-12-20T06:33:18.966Z,99942.39
2018-12-20T06:35:47.187Z,99942.16
2018-12-20T06:38:15.406Z,99945.77
2018-12-20T06:40:43.626Z,99941.17
2018-12-20T06:43:11.814Z,99947.22
2018-12-20T06:45:40.246Z,99937.25
2018-12-20T06:48:08.455Z,99945.69
2018-12-20T06:50:36.685Z,99943.25
2018-12-20T06:53:04.910Z,99937.25
2018-12-20T06:55:33.118Z,99939.42
2018-12-20T06:58:01.507Z,99935.58
2018-12-20T07:00:30.134Z,99937.72
2018-12-20T07:02:58.327Z,99937.36
2018-12-20T07:05:26.467Z,99929.31
2018-12-20T07:07:54.674Z,99938.58
2018-12-20T07:10:22.807Z,99937.05
2018-12-20T07:12:51.015Z,99941.06
2018-12-20T07:15:19.195Z,99942.84
2018-12-20T07:17:47.475Z,99937.63
2018-12-20T07:20:15.618Z,99942.94
2018-12-20T07:22:43.795Z,99942.37
2018-12-20T07:25:11.895Z,99938.14
2018-12-20T07:27:40.095Z,99937.44
2018-12-20T07:30:10.075Z,99946.48
2018-12-20T07:32:38.355Z,99947.79
2018-12-20T07:35:06.774Z,99941.39
2018-12-20T07:37:34.995Z,99948.66
2018-12-20T07:40:03.545Z,99951.05
2018-12-20T07:42:32.847Z,99954.01
2018-12-20T07:45:01.215Z,99949.74
2018-12-20T07:47:29.716Z,99958.75
2018-12-20T07:49:57.815Z,99959.06
2018-12-20T07:52:25.995Z,99955.63
2018-12-20T07:54:54.155Z,99953.97
2018-12-20T07:57:22.298Z,99955.97
2018-12-20T07:59:50.675Z,99952.11
2018-12-20T08:02:18.856Z,99957.97
2018-12-20T08:04:46.995Z,99955.45
2018-12-20T08:07:15.135Z,99966.38
2018-12-20T08:09:43.395Z,99961.73
2018-12-20T08:12:11.476Z,99961.20
2018-12-20T08:14:39.635Z,99965.47
2018-12-20T08:17:07.827Z,99975.72
2018-12-20T08:19:36.637Z,99966.33
2018-12-20T08:22:05.039Z,99968.81
2018-12-20T08:24:33.258Z,99974.86
2018-12-20T08:27:03.798Z,99977.59
2018-12-20T08:29:32.715Z,99974.16
2018-12-20T08:32:00.777Z,99975.91
2018-12-20T08:34:29.083Z,99989.12
2018-12-20T08:36:57.675Z,99990.65
2018-12-20T08:39:25.798Z,99986.99
2018-12-20T08:41:54.387Z,99983.47
2018-12-20T08:44:23.360Z,99989.12
2018-12-20T08:46:54.490Z,99993.39
2018-12-20T08:49:22.555Z,99989.86
2018-12-20T08:51:50.715Z,99991.73
2018-12-20T08:54:18.996Z,99992.31
2018-12-20T08:56:47.128Z,99986.34
2018-12-20T08:59:15.296Z,100003.19
2018-12-20T09:01:43.615Z,99989.66
2018-12-20T09:04:11.755Z,99994.05
2018-12-20T09:06:39.917Z,99998.27
2018-12-20T09:09:08.398Z,100004.91
2018-12-20T09:11:36.675Z,100007.20
2018-12-20T09:14:04.875Z,100006.52
2018-12-20T09:16:33.115Z,100006.25
2018-12-20T09:19:01.275Z,100009.18
2018-12-20T09:21:29.355Z,100006.34
2018-12-20T09:23:57.456Z,100000.52
2018-12-20T09:26:25.715Z,100010.87
2018-12-20T09:28:53.947Z,100010.55
2018-12-20T09:31:22.095Z,100013.08
2018-12-20T09:33:50.355Z,100013.36
2018-12-20T09:36:18.535Z,100009.55
2018-12-20T09:38:46.657Z,100007.50
2018-12-20T09:41:14.895Z,100008.27
2018-12-20T09:43:43.156Z,100013.14
2018-12-20T09:46:11.336Z,100001.36
2018-12-20T09:48:39.468Z,99999.13
2018-12-20T09:51:07.676Z,100008.08
2018-12-20T09:53:36.075Z,100008.81
2018-12-20T09:56:04.175Z,100015.76
2018-12-20T09:58:33.016Z,100000.69
2018-12-20T10:01:01.158Z,100006.04
2018-12-20T10:03:29.235Z,100005.11
2018-12-20T10:05:57.376Z,100014.39
2018-12-20T10:08:25.475Z,100005.75
2018-12-20T10:10:53.607Z,99999.80
2018-12-20T10:13:21.855Z,100002.18
2018-12-20T10:15:49.936Z,99994.02
2018-12-20T10:18:18.036Z,100003.52
2018-12-20T10:20:46.235Z,100006.09
2018-12-20T10:23:14.335Z,100000.78
2018-12-20T10:25:42.675Z,99996.50
2018-12-20T10:28:10.835Z,99997.36
2018-12-20T10:30:39.118Z,99990.20
2018-12-20T10:33:07.355Z,99986.78
2018-12-20T10:35:35.715Z,99991.69
2018-12-20T10:38:03.835Z,99981.75
2018-12-20T10:40:32.016Z,99986.52
2018-12-20T10:43:00.676Z,99986.27
2018-12-20T10:45:28.895Z,99988.56
2018-12-20T10:47:57.015Z,99984.11
2018-12-20T10:50:25.297Z,99986.67
2018-12-20T10:52:53.516Z,99985.48
2018-12-20T10:55:21.807Z,99984.21
2018-12-20T10:57:50.217Z,99972.45
2018-12-20T11:00:18.316Z,99970.89
2018-12-20T11:02:51.935Z,99970.91
2018-12-20T11:05:25.229Z,99972.86
2018-12-20T11:07:59.255Z,99963.81
2018-12-20T11:10:29.036Z,99961.20
2018-12-20T11:12:57.323Z,99962.28
2018-12-20T11:15:25.435Z,99961.02
2018-12-20T11:17:53.558Z,99959.22
2018-12-20T11:20:21.975Z,99959.45
2018-12-20T11:22:50.256Z,99958.40
2018-12-20T11:25:18.298Z,99958.84
2018-12-20T11:27:46.435Z,99959.09
2018-12-20T11:30:14.695Z,99952.20
2018-12-20T11:32:42.815Z,99948.86
2018-12-20T11:35:12.137Z,99945.76
2018-12-20T11:37:40.275Z,99944.92
2018-12-20T11:40:08.887Z,99948.03
2018-12-20T11:42:37.690Z,99956.36
2018-12-20T11:45:06.615Z,99947.44
2018-12-20T11:47:34.728Z,99944.92
2018-12-20T11:50:02.819Z,99944.81
2018-12-20T11:52:30.995Z,99948.03
2018-12-20T12:11:19.136Z,99941.25
2018-12-20T12:25:11.815Z,99942.70
2018-12-20T12:27:40.224Z,99948.03
2018-12-20T12:30:09.916Z,99937.91
2018-12-20T12:44:18.896Z,99940.08
2018-12-20T12:47:19.361Z,99940.18
2018-12-20T12:52:52.295Z,99940.91
2018-12-20T13:04:04.516Z,99932.09
2018-12-20T13:27:07.628Z,99927.68
2018-12-20T13:35:27.943Z,99930.05
2018-12-20T13:49:26.842Z,99922.45
2018-12-20T13:52:09.143Z,99933.16
2018-12-20T13:57:33.243Z,99933.30
2018-12-20T14:00:01.982Z,99934.47
2018-12-20T14:13:22.574Z,99931.84
2018-12-20T14:24:50.103Z,99941.14
2018-12-20T14:27:18.562Z,99934.70
2018-12-20T14:33:03.816Z,99940.05
2018-12-20T14:48:47.342Z,99926.58
2018-12-20T14:51:28.622Z,99915.39
2018-12-20T15:00:00.783Z,99929.79
2018-12-20T15:02:37.862Z,99937.98
2018-12-20T15:05:08.102Z,99939.42
2018-12-20T15:07:47.742Z,99939.19
2018-12-20T15:10:41.503Z,99928.97
2018-12-20T15:13:13.851Z,99935.84
2018-12-20T15:15:47.701Z,99940.00
2018-12-20T15:18:18.301Z,99929.67
2018-12-20T15:20:46.702Z,99931.23
2018-12-20T15:23:35.482Z,99931.69
2018-12-20T15:26:06.074Z,99933.37
2018-12-20T15:28:34.283Z,99934.44
2018-12-20T15:31:02.635Z,99933.23
2018-12-20T15:36:29.014Z,99932.74
2018-12-20T15:38:57.113Z,99932.87
2018-12-20T15:41:25.422Z,99931.19
2018-12-20T15:43:54.494Z,99932.63
2018-12-20T15:46:22.645Z,99933.78
2018-12-20T15:52:10.842Z,99928.20
2018-12-20T16:03:10.842Z,99937.47
2018-12-20T16:05:39.342Z,99932.73
2018-12-20T16:08:08.424Z,99923.24
2018-12-20T16:10:37.122Z,99940.95
2018-12-20T16:13:10.541Z,99946.42
2018-12-20T16:15:48.301Z,99948.31
2018-12-20T17:06:20.421Z,99994.24
2018-12-20T17:27:51.005Z,99990.91
2018-12-20T17:33:45.181Z,99997.91
2018-12-20T17:39:42.781Z,100003.90
2018-12-20T17:42:26.882Z,99989.19
2018-12-20T18:02:20.481Z,99984.56
2018-12-20T18:24:11.081Z,99972.97
2018-12-20T18:29:18.061Z,99984.75
2018-12-20T18:31:46.641Z,99982.23
2018-12-20T18:34:15.301Z,99981.89
2018-12-20T18:36:43.785Z,99977.75
2018-12-20T18:39:12.341Z,99983.32
2018-12-20T18:41:40.941Z,99978.48
2018-12-20T18:44:09.401Z,99982.97
2018-12-20T18:46:37.881Z,99976.77
2018-12-20T18:49:06.384Z,99982.11
2018-12-20T18:51:34.902Z,99986.13
2018-12-20T18:54:03.441Z,99978.86
2018-12-20T18:56:32.002Z,99983.26
2018-12-20T18:59:00.664Z,99979.08
2018-12-20T19:01:29.629Z,99985.27
2018-12-20T19:03:58.701Z,99985.97
2018-12-20T19:06:27.541Z,99976.89
2018-12-20T19:08:56.041Z,99988.67
2018-12-20T19:11:24.701Z,99988.55
2018-12-20T19:13:53.229Z,99987.50
2018-12-20T19:16:21.821Z,99996.89
2018-12-20T19:18:50.258Z,99988.23
2018-12-20T19:21:19.501Z,99989.79
2018-12-20T19:23:47.846Z,99981.22
2018-12-20T19:26:16.354Z,99974.69
2018-12-20T19:28:44.836Z,99981.80
2018-12-20T19:31:13.316Z,99965.86
2018-12-20T19:33:41.743Z,99978.09
2018-12-20T19:36:10.243Z,99982.81
2018-12-20T19:38:38.717Z,99980.80
2018-12-20T19:41:07.371Z,99975.23
2018-12-20T19:43:36.296Z,99982.40
2018-12-20T19:46:04.891Z,99979.88
2018-12-20T19:48:33.301Z,99974.20
2018-12-20T19:51:02.615Z,99992.53
2018-12-20T19:53:31.001Z,99996.09
2018-12-20T19:56:00.163Z,99987.41
2018-12-20T19:58:30.659Z,99988.93
2018-12-20T20:00:59.657Z,99988.45
2018-12-20T20:03:30.296Z,99988.70
2018-12-20T20:06:00.087Z,99979.08
2018-12-20T20:08:29.049Z,99988.80
2018-12-20T20:10:57.972Z,99987.75
2018-12-20T20:13:30.676Z,99989.66
2018-12-20T20:15:57.622Z,99985.99
2018-12-20T20:18:27.452Z,99982.52
2018-12-20T20:20:56.312Z,99975.13
2018-12-20T20:23:25.047Z,99978.55
2018-12-20T20:25:53.942Z,99966.19
2018-12-20T20:28:22.327Z,99973.41
2018-12-20T20:30:50.767Z,99964.02
2018-12-20T20:33:19.133Z,99967.02
2018-12-20T20:35:47.623Z,99955.61
2018-12-20T20:38:16.152Z,99970.45
2018-12-20T20:40:44.493Z,99966.05
2018-12-20T20:43:13.432Z,99969.05
2018-12-20T20:45:41.887Z,99965.96
2018-12-20T20:48:10.407Z,99973.89
2018-12-20T20:50:38.822Z,99974.84
2018-12-20T20:53:07.322Z,99974.72
2018-12-20T20:55:35.702Z,99972.49
2018-12-20T20:58:04.625Z,99967.62
2018-12-20T21:00:32.978Z,99971.31
2018-12-20T21:03:01.405Z,99978.32
2018-12-20T21:05:30.372Z,99976.66
2018-12-20T21:07:58.782Z,99966.22
2018-12-20T21:10:27.172Z,99976.28
2018-12-20T21:12:55.602Z,99971.66
2018-12-20T21:15:23.987Z,99962.17
2018-12-20T21:17:52.487Z,99967.74
2018-12-20T21:20:20.897Z,99960.35
2018-12-20T21:22:49.330Z,99965.70
2018-12-20T21:25:17.729Z,99959.91
2018-12-20T21:27:59.647Z,99957.04
2018-12-20T21:34:38.143Z,99962.84
2018-12-20T21:37:36.863Z,99956.41
2018-12-20T21:40:36.318Z,99956.78
2018-12-20T21:43:16.943Z,99950.13
2018-12-20T21:46:01.228Z,99961.69
2018-12-20T21:51:17.925Z,99975.23
2018-12-20T21:53:55.842Z,99966.91
2018-12-20T21:56:42.238Z,99977.27
2018-12-20T21:59:19.263Z,99977.63
2018-12-20T22:30:01.687Z,99958.94
2018-12-20T22:35:37.802Z,99959.77
2018-12-20T22:38:24.552Z,99958.94
2018-12-20T22:40:57.737Z,99958.78
2018-12-20T22:43:29.803Z,99958.89
2018-12-20T22:46:11.237Z,99959.01
2018-12-20T22:48:46.652Z,99956.75
2018-12-20T22:51:21.388Z,99958.44
2018-12-20T22:53:56.172Z,99957.86
2018-12-20T22:56:24.247Z,99962.83
2018-12-20T22:58:55.242Z,99962.13
2018-12-20T23:01:23.367Z,99968.88
2018-12-20T23:03:53.293Z,99963.08
2018-12-20T23:06:21.259Z,99964.16
2018-12-20T23:08:49.217Z,99973.76
2018-12-20T23:11:17.372Z,99966.78
2018-12-20T23:13:47.177Z,99963.20
2018-12-20T23:16:15.142Z,99957.25
2018-12-20T23:18:43.137Z,99963.69
2018-12-20T23:21:14.305Z,99950.02
2018-12-20T23:23:43.468Z,99927.42
2018-12-20T23:26:11.481Z,99938.70
2018-12-20T23:28:39.441Z,99929.53
2018-12-20T23:31:07.383Z,99931.80
2018-12-20T23:33:35.472Z,99910.65
2018-12-20T23:36:05.293Z,99918.26
2018-12-20T23:38:33.244Z,99923.83
2018-12-20T23:41:01.442Z,99908.28
2018-12-20T23:43:29.858Z,99917.53
2018-12-20T23:45:58.406Z,99896.19
2018-12-20T23:48:26.527Z,99916.70
2018-12-20T23:50:54.611Z,99922.88
2018-12-20T23:53:23.543Z,99919.31
2018-12-20T23:55:51.632Z,99929.41
2018-12-20T23:58:19.603Z,99928.45
